Time;durP1;ratioP1;P1;durP2;ratioP2;P2;SDS_P1;SDS_P2;PMS_P1;PMS_P2;Temp;Humidity;BMP_temperature;BMP_pressure;BME280_temperature;BME280_humidity;BME280_pressure;Samples;Min_cycle;Max_cycle;Signal;HPM_P1;HPM_P2
2021/08/13 00:09:16;;;;;;;15.93;10.03;;;;;;;16.64;100.00;101028.50;714179;1202;114477;-83
2021/08/13 00:24:19;;;;;;;12.88;8.35;;;;;;;16.46;100.00;101030.38;714458;1202;116346;-83
2021/08/13 00:39:21;;;;;;;11.90;7.03;;;;;;;16.34;100.00;101029.80;714219;1200;114782;-84
2021/08/13 00:54:23;;;;;;;11.90;8.57;;;;;;;16.21;100.00;101019.61;714123;1200;114347;-83
2021/08/13 01:09:25;;;;;;;12.00;8.43;;;;;;;16.05;100.00;101020.33;714311;1177;114515;-83
2021/08/13 01:24:32;;;;;;;15.05;9.50;;;;;;;15.91;100.00;101020.86;714332;1200;115854;-82
2021/08/13 01:39:35;;;;;;;12.15;8.80;;;;;;;15.77;100.00;101009.80;714441;1200;115937;-81
2021/08/13 01:54:38;;;;;;;13.03;8.20;;;;;;;15.68;100.00;101001.94;714436;1177;114328;-82
2021/08/13 02:09:42;;;;;;;14.60;8.40;;;;;;;15.55;100.00;101010.27;714330;1202;115251;-83
2021/08/13 02:24:44;;;;;;;11.15;7.38;;;;;;;15.31;100.00;101001.92;715115;1200;115759;-83
2021/08/13 02:39:56;;;;;;;11.18;8.28;;;;;;;15.19;100.00;101013.69;714307;1200;114811;-84
2021/08/13 02:55:03;;;;;;;19.00;11.33;;;;;;;15.02;100.00;101015.30;715268;1205;114221;-84
2021/08/13 03:10:08;;;;;;;15.17;10.73;;;;;;;15.03;100.00;101021.41;714491;1200;114634;-85
2021/08/13 03:25:10;;;;;;;21.95;12.25;;;;;;;14.86;100.00;101023.00;714406;1204;114677;-82
2021/08/13 03:40:12;;;;;;;19.73;12.03;;;;;;;14.91;100.00;101018.97;714201;1202;114526;-82
2021/08/13 03:55:15;;;;;;;19.70;13.00;;;;;;;14.96;100.00;101002.67;714392;1200;115771;-82
2021/08/13 04:10:17;;;;;;;23.97;12.60;;;;;;;14.89;100.00;101014.81;714321;1200;116447;-83
2021/08/13 04:25:20;;;;;;;31.18;14.23;;;;;;;15.02;100.00;101017.09;714595;1177;113772;-84
2021/08/13 04:40:22;;;;;;;19.53;10.87;;;;;;;15.10;100.00;101025.96;714528;1200;115799;-81
2021/08/13 04:55:25;;;;;;;20.43;11.05;;;;;;;15.64;100.00;101028.69;715109;1176;114862;-83
2021/08/13 05:10:28;;;;;;;23.23;11.28;;;;;;;16.07;100.00;101046.63;714558;1202;114716;-82
2021/08/13 05:25:30;;;;;;;14.18;9.38;;;;;;;16.68;100.00;101044.92;714502;1203;114377;-82
2021/08/13 05:40:32;;;;;;;18.20;10.48;;;;;;;17.42;100.00;101049.71;714614;1200;113916;-84
2021/08/13 05:55:34;;;;;;;19.00;11.85;;;;;;;18.26;100.00;101047.02;714532;1198;115003;-82
2021/08/13 06:10:36;;;;;;;19.27;11.90;;;;;;;19.01;100.00;101045.05;714627;1200;115953;-80
2021/08/13 06:25:39;;;;;;;17.93;10.40;;;;;;;19.76;100.00;101060.42;714417;1200;115080;-80
2021/08/13 06:40:41;;;;;;;15.23;9.60;;;;;;;20.42;100.00;101059.91;714718;1200;115408;-80
2021/08/13 06:55:43;;;;;;;18.20;11.10;;;;;;;21.31;100.00;101074.27;714902;1203;114394;-79
2021/08/13 07:10:45;;;;;;;13.87;7.07;;;;;;;22.38;99.23;101086.07;715041;1200;114538;-76
2021/08/13 07:25:50;;;;;;;13.30;6.70;;;;;;;23.22;95.35;101084.30;715989;1202;114561;-75
2021/08/13 07:40:54;;;;;;;9.20;5.15;;;;;;;23.66;91.93;101084.84;715675;1205;116389;-76
2021/08/13 07:56:04;;;;;;;9.25;5.30;;;;;;;24.20;89.76;101093.80;715429;1202;114226;-75
2021/08/13 08:11:06;;;;;;;7.45;4.90;;;;;;;25.08;86.03;101098.02;715284;1200;114541;-75
2021/08/13 08:26:08;;;;;;;8.08;5.63;;;;;;;25.69;84.05;101089.70;715231;1202;114737;-76
2021/08/13 08:41:10;;;;;;;9.33;4.98;;;;;;;26.23;80.70;101090.16;715096;1200;114546;-79
2021/08/13 08:56:16;;;;;;;6.90;4.60;;;;;;;27.65;76.85;101099.16;715038;1179;113900;-77
2021/08/13 09:11:19;;;;;;;7.68;4.75;;;;;;;28.11;73.67;101093.30;714422;1200;114002;-76
2021/08/13 09:26:23;;;;;;;6.33;3.10;;;;;;;28.48;69.78;101098.47;714524;1200;114011;-76
2021/08/13 09:41:25;;;;;;;5.10;3.63;;;;;;;28.42;65.69;101088.64;714614;1200;114007;-76
2021/08/13 09:56:30;;;;;;;5.63;3.70;;;;;;;28.76;62.26;101088.84;714610;1200;113863;-76
2021/08/13 10:11:35;;;;;;;6.75;3.60;;;;;;;28.78;60.78;101065.95;714636;1202;114230;-75
2021/08/13 10:26:38;;;;;;;4.47;3.97;;;;;;;28.89;58.72;101050.81;714532;1203;113963;-76
2021/08/13 10:41:42;;;;;;;4.63;3.60;;;;;;;29.40;57.94;101036.66;715415;1202;114694;-79
2021/08/13 10:56:47;;;;;;;5.40;3.60;;;;;;;29.00;56.38;101020.23;716194;1200;113994;-77
2021/08/13 11:11:57;;;;;;;4.53;2.70;;;;;;;30.42;53.23;101023.11;714666;1202;114709;-77
2021/08/13 11:26:59;;;;;;;3.93;2.73;;;;;;;31.05;52.91;101015.52;714881;1200;115650;-82
2021/08/13 11:42:09;;;;;;;5.83;2.63;;;;;;;31.02;51.95;101016.00;716528;1200;114749;-78
2021/08/13 11:57:17;;;;;;;5.73;3.05;;;;;;;30.42;51.37;101013.12;715089;1177;114640;-78
2021/08/13 12:12:29;;;;;;;3.27;2.97;;;;;;;30.78;50.97;100999.23;716399;1185;113914;-71
2021/08/13 12:27:33;;;;;;;5.90;2.50;;;;;;;31.81;49.95;100975.81;715721;1200;114460;-71
2021/08/13 12:42:35;;;;;;;3.65;2.70;;;;;;;31.61;49.17;100977.30;715065;1202;114829;-75
2021/08/13 12:57:37;;;;;;;4.83;2.43;;;;;;;31.38;49.32;100964.08;714282;1200;114809;-72
2021/08/13 13:12:39;;;;;;;4.23;2.98;;;;;;;31.12;48.00;100969.26;714234;1200;114421;-72
2021/08/13 13:27:54;;;;;;;4.33;2.83;;;;;;;31.50;48.19;100967.41;714543;1205;114390;-71
2021/08/13 13:42:56;;;;;;;3.88;2.70;;;;;;;31.26;47.80;100954.22;715730;1200;113991;-72
2021/08/13 13:57:58;;;;;;;5.23;2.50;;;;;;;32.10;47.73;100942.89;714408;1200;114714;-73
2021/08/13 14:13:05;;;;;;;3.90;2.95;;;;;;;31.41;47.21;100947.29;715151;1203;114368;-72
2021/08/13 14:28:07;;;;;;;3.40;2.50;;;;;;;39.91;41.33;100940.95;714255;1200;114796;-72
2021/08/13 14:43:10;;;;;;;3.90;2.63;;;;;;;43.92;38.90;100896.16;714207;1202;114809;-72
2021/08/13 14:58:12;;;;;;;4.90;2.90;;;;;;;35.99;41.55;100872.16;714436;1203;113919;-73
2021/08/13 15:13:14;;;;;;;4.53;3.25;;;;;;;36.97;41.05;100874.32;714206;1202;113972;-72
2021/08/13 15:28:18;;;;;;;5.13;2.73;;;;;;;32.34;45.22;100856.44;713982;1202;114035;-72
2021/08/13 15:43:21;;;;;;;5.10;2.70;;;;;;;31.34;46.77;100845.38;714309;1175;114123;-73
2021/08/13 15:58:23;;;;;;;4.13;2.90;;;;;;;30.98;47.78;100833.42;714523;1200;114157;-76
2021/08/13 16:13:25;;;;;;;3.58;3.20;;;;;;;29.82;49.39;100831.63;714310;1205;114565;-71
2021/08/13 16:28:27;;;;;;;4.70;3.43;;;;;;;29.16;51.24;100818.78;714158;1178;114281;-72
2021/08/13 16:43:30;;;;;;;65.45;34.70;;;;;;;28.68;52.99;100812.09;714258;1202;114643;-71
2021/08/13 16:58:32;;;;;;;14.50;7.10;;;;;;;27.77;54.91;100799.21;714044;1203;115020;-78
2021/08/13 17:13:34;;;;;;;34.45;19.25;;;;;;;27.21;56.10;100784.27;714308;1200;114307;-76
2021/08/13 17:28:36;;;;;;;17.00;7.40;;;;;;;26.46;58.04;100782.10;714955;1200;115003;-76
2021/08/13 17:43:38;;;;;;;11.90;7.68;;;;;;;25.82;60.23;100794.05;716105;1202;114147;-76
2021/08/13 17:58:42;;;;;;;11.25;6.15;;;;;;;25.02;62.86;100778.70;714925;1200;115610;-74
2021/08/13 18:13:44;;;;;;;7.95;5.05;;;;;;;24.23;67.08;100784.33;714486;1202;114005;-74
2021/08/13 18:28:46;;;;;;;14.10;5.28;;;;;;;23.87;68.56;100785.70;714657;1200;115206;-76
2021/08/13 18:43:48;;;;;;;6.47;4.83;;;;;;;23.46;69.70;100770.77;714934;1190;115658;-75
2021/08/13 18:58:55;;;;;;;7.28;3.98;;;;;;;23.41;70.83;100787.45;714429;1203;114469;-76
2021/08/13 19:13:58;;;;;;;21.58;10.38;;;;;;;23.12;73.16;100794.03;715905;1177;113963;-77
2021/08/13 19:29:00;;;;;;;13.70;9.45;;;;;;;22.96;74.42;100793.41;714522;1177;114136;-75
2021/08/13 19:44:02;;;;;;;82.03;33.43;;;;;;;22.68;76.62;100780.22;714935;1202;114913;-73
2021/08/13 19:59:04;;;;;;;103.18;45.28;;;;;;;22.33;79.27;100766.94;714648;1200;115546;-73
2021/08/13 20:14:07;;;;;;;29.05;15.05;;;;;;;22.06;78.50;100767.67;714748;1192;115992;-74
2021/08/13 20:29:10;;;;;;;15.37;9.23;;;;;;;21.99;78.35;100753.48;714715;1177;114507;-73
2021/08/13 20:44:13;;;;;;;11.57;8.27;;;;;;;21.80;78.06;100739.00;714751;1206;115339;-73
2021/08/13 20:59:15;;;;;;;9.58;7.40;;;;;;;21.88;76.76;100732.67;714499;1202;115266;-73
2021/08/13 21:14:17;;;;;;;11.68;7.35;;;;;;;21.70;77.94;100717.21;714887;1200;113984;-72
2021/08/13 21:29:21;;;;;;;9.53;6.53;;;;;;;21.75;78.68;100704.09;714639;1203;115280;-73
2021/08/13 21:44:24;;;;;;;7.90;6.15;;;;;;;21.72;79.30;100707.14;715222;1182;114577;-74
2021/08/13 21:59:26;;;;;;;7.70;5.60;;;;;;;21.54;79.50;100683.67;714744;1201;114951;-75
2021/08/13 22:14:28;;;;;;;8.45;5.85;;;;;;;21.41;80.73;100677.20;714816;1203;113745;-74
2021/08/13 22:29:31;;;;;;;7.68;5.45;;;;;;;21.36;80.84;100695.64;714469;1202;115670;-75
2021/08/13 22:44:34;;;;;;;20.33;10.58;;;;;;;21.20;82.73;100683.44;714290;1200;114530;-76
2021/08/13 22:59:36;;;;;;;14.93;9.05;;;;;;;20.84;84.87;100683.59;714284;1202;115269;-75
2021/08/13 23:14:38;;;;;;;14.95;9.45;;;;;;;20.60;87.34;100666.96;714283;1200;114485;-75
2021/08/13 23:29:41;;;;;;;14.68;10.10;;;;;;;20.42;89.21;100670.10;714179;1205;114705;-75
2021/08/13 23:44:43;;;;;;;12.88;8.78;;;;;;;20.19;89.88;100662.28;714386;1200;115295;-75
2021/08/13 23:59:45;;;;;;;11.37;7.80;;;;;;;19.84;91.99;100646.16;714326;1178;113877;-75
